Observation data for Silverton on 11/11/2019      Previous  Date       Current Mesonet Observations  Soil Data  Daily Summary Page  Observations in Plain Language
KSVS 110600Z 28007KT 07/01 A2986 RMK A01 T00710013  RH  067%=      5-min Rain = 0
KSVS 110605Z 28007KT 07/01 A2985 RMK A01 T00700012  RH  068%=      5-min Rain = 0
KSVS 110610Z 28009KT 07/01 A2985 RMK A01 T00710012  RH  067%=      5-min Rain = 0
KSVS 110615Z 28008KT 07/01 A2985 RMK A01 T00730012  RH  066%=      5-min Rain = 0
KSVS 110620Z 29008KT 07/01 A2985 RMK A01 T00720012  RH  067%=      5-min Rain = 0
KSVS 110625Z 29008KT 07/01 A2985 RMK A01 T00720012  RH  066%=      5-min Rain = 0
KSVS 110630Z 29007KT 07/01 A2986 RMK A01 T00720012  RH  066%=      5-min Rain = 0
KSVS 110635Z 28007KT 07/01 A2986 RMK A01 T00710012  RH  067%=      5-min Rain = 0
KSVS 110640Z 29008KT 07/01 A2986 RMK A01 T00720012  RH  066%=      5-min Rain = 0
KSVS 110645Z 29007KT 07/01 A2986 RMK A01 T00740011  RH  065%=      5-min Rain = 0
KSVS 110650Z 28006KT 07/01 A2986 RMK A01 T00720011  RH  066%=      5-min Rain = 0
KSVS 110655Z 28006KT 07/01 A2986 RMK A01 T00700011  RH  067%=      5-min Rain = 0
KSVS 110700Z 28008KT 07/01 A2986 RMK A01 T00710011  RH  067%=      5-min Rain = 0
KSVS 110705Z 29009KT 07/01 A2986 RMK A01 T00720011  RH  066%=      5-min Rain = 0
KSVS 110710Z 29008KT 07/01 A2986 RMK A01 T00730010  RH  066%=      5-min Rain = 0
KSVS 110715Z 29007KT 07/01 A2986 RMK A01 T00720010  RH  066%=      5-min Rain = 0
KSVS 110720Z 29007KT 07/01 A2986 RMK A01 T00720010  RH  066%=      5-min Rain = 0
KSVS 110725Z 29005KT 07/01 A2986 RMK A01 T00730010  RH  065%=      5-min Rain = 0
KSVS 110730Z 30003KT 08/01 A2987 RMK A01 T00760009  RH  063%=      5-min Rain = 0
KSVS 110735Z 30005KT 08/01 A2987 RMK A01 T00770008  RH  063%=      5-min Rain = 0
KSVS 110740Z 30007KT 07/01 A2987 RMK A01 T00730009  RH  064%=      5-min Rain = 0
KSVS 110745Z 30008KT 08/01 A2987 RMK A01 T00750010  RH  064%=      5-min Rain = 0
KSVS 110750Z 29008KT 08/01 A2987 RMK A01 T00780009  RH  062%=      5-min Rain = 0
KSVS 110755Z 30007KT 08/01 A2988 RMK A01 T00790009  RH  062%=      5-min Rain = 0
KSVS 110800Z 31008KT 08/01 A2988 RMK A01 T00840008  RH  060%=      5-min Rain = 0
KSVS 110805Z 33012G17KT 10/01 A2988 RMK A01 T01040006  RH  051%=      5-min Rain = 0
KSVS 110810Z 34016KT 11/00 A2988 RMK A01 T01100004  RH  049%=      5-min Rain = 0
KSVS 110815Z 34016G21KT 10/01 A2988 RMK A01 T01030011  RH  053%=      5-min Rain = 0
KSVS 110820Z 35014G20KT 10/01 A2989 RMK A01 T00980014  RH  057%=      5-min Rain = 0
KSVS 110825Z 35016G22KT 09/02 A2989 RMK A01 T00940016  RH  059%=      5-min Rain = 0
KSVS 110830Z 35016G21KT 09/02 A2989 RMK A01 T00910018  RH  061%=      5-min Rain = 0
KSVS 110835Z 35018KT 09/02 A2989 RMK A01 T00900019  RH  062%=      5-min Rain = 0
KSVS 110840Z 35018G24KT 09/02 A2989 RMK A01 T00880020  RH  063%=      5-min Rain = 0
KSVS 110845Z 35018G23KT 09/02 A299 RMK A01 T00860021  RH  065%=      5-min Rain = 0
KSVS 110850Z 35018G23KT 08/02 A299 RMK A01 T00840022  RH  066%=      5-min Rain = 0
KSVS 110855Z 35019G25KT 08/03 A299 RMK A01 T00830025  RH  068%=      5-min Rain = 0
KSVS 110900Z 35021G27KT 08/03 A2991 RMK A01 T00810026  RH  069%=      5-min Rain = 0
KSVS 110905Z 35019G25KT 08/03 A2991 RMK A01 T00810031  RH  072%=      5-min Rain = 0
KSVS 110910Z 35019G24KT 08/03 A2991 RMK A01 T00800033  RH  073%=      5-min Rain = 0
KSVS 110915Z 35018G26KT 08/04 A2992 RMK A01 T00790037  RH  076%=      5-min Rain = 0
KSVS 110920Z 36018G25KT 08/04 A2993 RMK A01 T00780037  RH  077%=      5-min Rain = 0
KSVS 110925Z 36017G24KT 08/04 A2993 RMK A01 T00770039  RH  078%=      5-min Rain = 0
KSVS 110930Z 36017G28KT 08/04 A2994 RMK A01 T00760038  RH  079%=      5-min Rain = 0
KSVS 110935Z 36022G29KT 07/04 A2995 RMK A01 T00740039  RH  080%=      5-min Rain = 0
KSVS 110940Z 35022G30KT 07/04 A2995 RMK A01 T00730039  RH  080%=      5-min Rain = 0
KSVS 110945Z 35020G28KT 07/04 A2996 RMK A01 T00730039  RH  081%=      5-min Rain = 0
KSVS 110950Z 36021G28KT 07/04 A2996 RMK A01 T00730038  RH  080%=      5-min Rain = 0
KSVS 110955Z 36019KT 07/04 A2996 RMK A01 T00720037  RH  080%=      5-min Rain = 0
KSVS 111000Z 36017G24KT 07/04 A2997 RMK A01 T00720037  RH  080%=      5-min Rain = 0
KSVS 111005Z 36021G27KT 07/03 A2998 RMK A01 T00710033  RH  078%=      5-min Rain = 0
KSVS 111010Z 36018G26KT 07/03 A2999 RMK A01 T00700032  RH  078%=      5-min Rain = 0
KSVS 111015Z 00019G26KT 07/03 A30 RMK A01 T00690029  RH  077%=      5-min Rain = 0
KSVS 111020Z 00021G32KT 07/03 A30 RMK A01 T00680027  RH  077%=      5-min Rain = 0
KSVS 111025Z 01021G30KT 06/02 A30 RMK A01 T00630023  RH  077%=      5-min Rain = 0
KSVS 111030Z 01019G28KT 06/02 A3001 RMK A01 T00620023  RH  077%=      5-min Rain = 0
KSVS 111035Z 00017G23KT 06/02 A3002 RMK A01 T00620023  RH  077%=      5-min Rain = 0
KSVS 111040Z 00021G29KT 06/02 A3003 RMK A01 T00600019  RH  076%=      5-min Rain = 0
KSVS 111045Z 01022G30KT 06/02 A3004 RMK A01 T00570015  RH  076%=      5-min Rain = 0
KSVS 111050Z 01022G28KT 06/01 A3005 RMK A01 T00550013  RH  075%=      5-min Rain = 0
KSVS 111055Z 36025G32KT 05/01 A3005 RMK A01 T00500007  RH  075%=      5-min Rain = 0
KSVS 111100Z 00024G33KT 05/00 A3006 RMK A01 T00450003  RH  075%=      5-min Rain = 0
KSVS 111105Z 00022G29KT 04/00 A3006 RMK A01 T00430002  RH  076%=      5-min Rain = 0
KSVS 111110Z 01026G35KT 04/M00 A3008 RMK A01 T00391002  RH  075%=      5-min Rain = 0
KSVS 111115Z 01026G33KT 03/M01 A3008 RMK A01 T00341005  RH  076%=      5-min Rain = 0
KSVS 111120Z 00024G32KT 03/M01 A3009 RMK A01 T00291007  RH  078%=      5-min Rain = 0
KSVS 111125Z 00024G30KT 03/M01 A301 RMK A01 T00271008  RH  078%=      5-min Rain = 0
KSVS 111130Z 36026G35KT 02/M01 A301 RMK A01 T00211013  RH  079%=      5-min Rain = 0
KSVS 111135Z 00024G32KT 02/M02 A301 RMK A01 T00151016  RH  080%=      5-min Rain = 0
KSVS 111140Z 35026G34KT 01/M02 A3011 RMK A01 T00131017  RH  081%=      5-min Rain = 0
KSVS 111145Z 35026G36KT 01/M02 A3012 RMK A01 T00091020  RH  081%=      5-min Rain = 0
KSVS 111150Z 35025G30KT 01/M02 A3013 RMK A01 T00051024  RH  081%=      5-min Rain = 0
KSVS 111155Z 35026G34KT 00/M03 A3013 RMK A01 T00041026  RH  081%=      5-min Rain = 0
KSVS 111200Z 36027G39KT 00/M03 A3014 RMK A01 T00021027  RH  081%=      5-min Rain = 0
KSVS 111205Z 35027G37KT 00/03 A3015 RMK A01 T00-00-28  RH  082%=      5-min Rain = 0
KSVS 111210Z 36026G35KT M00/M03 A3016 RMK A01 T10011028  RH  082%=      5-min Rain = 0
KSVS 111215Z 00025G33KT M00/M03 A3016 RMK A01 T10021026  RH  084%=      5-min Rain = 0
KSVS 111220Z 36024G32KT M00/M03 A3016 RMK A01 T10021027  RH  084%=      5-min Rain = 0
KSVS 111225Z 35025G32KT M00/M03 A3017 RMK A01 T10031029  RH  083%=      5-min Rain = 0
KSVS 111230Z 36024G33KT M00/M03 A3017 RMK A01 T10041031  RH  083%=      5-min Rain = 0
KSVS 111235Z 36024G31KT M01/M03 A3018 RMK A01 T10061030  RH  084%=      5-min Rain = 0
KSVS 111240Z 36025G31KT M01/M03 A3018 RMK A01 T10081029  RH  086%=      5-min Rain = 0
KSVS 111245Z 36023G31KT M01/M03 A3019 RMK A01 T10091029  RH  087%=      5-min Rain = 0
KSVS 111250Z 00023G29KT M01/M03 A3019 RMK A01 T10091028  RH  088%=      5-min Rain = 0
KSVS 111255Z 00022G30KT M01/M03 A302 RMK A01 T10101026  RH  090%=      5-min Rain = 0
KSVS 111300Z 00021G26KT M01/M03 A302 RMK A01 T10101025  RH  090%=      5-min Rain = 0
KSVS 111305Z 00020G25KT M01/M03 A302 RMK A01 T10111026  RH  090%=      5-min Rain = 0
KSVS 111310Z 00021G30KT M01/M03 A3021 RMK A01 T10121026  RH  090%=      5-min Rain = 0
KSVS 111315Z 00023G31KT M01/M03 A3021 RMK A01 T10141029  RH  091%=      5-min Rain = 0
KSVS 111320Z 01022G29KT M02/M03 A3021 RMK A01 T10171031  RH  091%=      5-min Rain = 0
KSVS 111325Z 01020G26KT M02/M03 A3022 RMK A01 T10191032  RH  091%=      5-min Rain = 0
KSVS 111330Z 00022G30KT M02/M03 A3022 RMK A01 T10181032  RH  091%=      5-min Rain = 0
KSVS 111335Z 36021G27KT M02/M03 A3022 RMK A01 T10201034  RH  091%=      5-min Rain = 0
KSVS 111340Z 00022G29KT M02/M04 A3023 RMK A01 T10221035  RH  091%=      5-min Rain = 0
KSVS 111345Z 36021G28KT M02/M04 A3024 RMK A01 T10231037  RH  090%=      5-min Rain = 0
KSVS 111350Z 00023G33KT M03/M04 A3024 RMK A01 T10251040  RH  090%=      5-min Rain = 0
KSVS 111355Z 00022G29KT M03/M04 A3024 RMK A01 T10261041  RH  090%=      5-min Rain = 0
KSVS 111400Z 35024G31KT M03/M04 A3025 RMK A01 T10281044  RH  089%=      5-min Rain = 0
KSVS 111405Z 36024G30KT M03/M05 A3025 RMK A01 T10291045  RH  089%=      5-min Rain = 0
KSVS 111410Z 36023G30KT M03/M05 A3026 RMK A01 T10281045  RH  088%=      5-min Rain = 0
KSVS 111415Z 01022G30KT M03/M05 A3026 RMK A01 T10291047  RH  088%=      5-min Rain = 0
KSVS 111420Z 00020G27KT M03/M05 A3027 RMK A01 T10281046  RH  088%=      5-min Rain = 0
KSVS 111425Z 00021G26KT M03/M05 A3027 RMK A01 T10291047  RH  088%=      5-min Rain = 0
KSVS 111430Z 35022G29KT M03/M05 A3028 RMK A01 T10321050  RH  088%=      5-min Rain = 0
KSVS 111435Z 00022G31KT M03/M05 A3029 RMK A01 T10331051  RH  087%=      5-min Rain = 0
KSVS 111440Z 01025G32KT M04/M06 A3029 RMK A01 T10351055  RH  086%=      5-min Rain = 0
KSVS 111445Z 01023G30KT M04/M06 A303 RMK A01 T10351057  RH  085%=      5-min Rain = 0
KSVS 111450Z 00022G32KT M04/M06 A303 RMK A01 T10351057  RH  085%=      5-min Rain = 0
KSVS 111455Z 36026G35KT M04/M06 A3031 RMK A01 T10391062  RH  084%=      5-min Rain = 0
KSVS 111500Z 01027G34KT M04/M06 A3031 RMK A01 T10401063  RH  084%=      5-min Rain = 0
KSVS 111505Z 01023G31KT M04/M06 A3032 RMK A01 T10391063  RH  084%=      5-min Rain = 0
KSVS 111510Z 01024G30KT M04/M06 A3032 RMK A01 T10391063  RH  084%=      5-min Rain = 0
KSVS 111515Z 35027G35KT M04/M06 A3033 RMK A01 T10401063  RH  084%=      5-min Rain = 0
KSVS 111520Z 35026G33KT M04/M07 A3033 RMK A01 T10421066  RH  084%=      5-min Rain = 0
KSVS 111525Z 36026G37KT M04/M07 A3033 RMK A01 T10431067  RH  083%=      5-min Rain = 0
KSVS 111530Z 00026G33KT M04/M07 A3033 RMK A01 T10431068  RH  083%=      5-min Rain = 0
KSVS 111535Z 36024G33KT M04/M07 A3034 RMK A01 T10431069  RH  082%=      5-min Rain = 0
KSVS 111540Z 36026G34KT M04/M07 A3034 RMK A01 T10441071  RH  082%=      5-min Rain = 0
KSVS 111545Z 00023G32KT M04/M07 A3034 RMK A01 T10441071  RH  082%=      5-min Rain = 0
KSVS 111550Z 00024G33KT M04/M07 A3035 RMK A01 T10441071  RH  081%=      5-min Rain = 0
KSVS 111555Z 00024G32KT M04/M07 A3035 RMK A01 T10431071  RH  081%=      5-min Rain = 0
KSVS 111600Z 00025G32KT M04/M07 A3036 RMK A01 T10431072  RH  080%=      5-min Rain = 0
KSVS 111605Z 00022G29KT M04/M07 A3036 RMK A01 T10431072  RH  080%=      5-min Rain = 0
KSVS 111610Z 00024G31KT M04/M07 A3037 RMK A01 T10431072  RH  080%=      5-min Rain = 0
KSVS 111615Z 00023G31KT M04/M07 A3037 RMK A01 T10421072  RH  080%=      5-min Rain = 0
KSVS 111620Z 00024G34KT M04/M07 A3038 RMK A01 T10431073  RH  080%=      5-min Rain = 0
KSVS 111625Z 00024G32KT M04/M07 A3039 RMK A01 T10431074  RH  079%=      5-min Rain = 0
KSVS 111630Z 36027G33KT M04/M08 A3039 RMK A01 T10431075  RH  078%=      5-min Rain = 0
KSVS 111635Z 00025G32KT M04/M08 A3038 RMK A01 T10441076  RH  078%=      5-min Rain = 0
KSVS 111640Z 36025G34KT M04/M08 A3039 RMK A01 T10441077  RH  078%=      5-min Rain = 0
KSVS 111645Z 36024G31KT M04/M08 A304 RMK A01 T10431078  RH  077%=      5-min Rain = 0
KSVS 111650Z 00023G31KT M04/M08 A304 RMK A01 T10441079  RH  076%=      5-min Rain = 0
KSVS 111655Z 36022G29KT M04/M08 A3041 RMK A01 T10441078  RH  077%=      5-min Rain = 0
KSVS 111700Z 36025G32KT M05/M08 A3042 RMK A01 T10471082  RH  076%=      5-min Rain = 0
KSVS 111705Z 00023G32KT M05/M08 A3042 RMK A01 T10471084  RH  075%=      5-min Rain = 0
KSVS 111710Z 36021G29KT M05/M08 A3042 RMK A01 T10451084  RH  074%=      5-min Rain = 0
KSVS 111715Z 35023G31KT M05/M09 A3042 RMK A01 T10471087  RH  074%=      5-min Rain = 0
KSVS 111720Z 36026G34KT M05/M09 A3042 RMK A01 T10471090  RH  072%=      5-min Rain = 0
KSVS 111725Z 36027G33KT M05/M09 A3042 RMK A01 T10471094  RH  070%=      5-min Rain = 0
KSVS 111730Z 00026G32KT M05/M10 A3042 RMK A01 T10461095  RH  069%=      5-min Rain = 0
KSVS 111735Z 01024G29KT M05/M10 A3042 RMK A01 T10451095  RH  068%=      5-min Rain = 0
KSVS 111740Z 00022G34KT M04/M10 A3042 RMK A01 T10441095  RH  067%=      5-min Rain = 0
KSVS 111745Z 00025G35KT M04/M10 A3042 RMK A01 T10421095  RH  066%=      5-min Rain = 0
KSVS 111750Z 00024G32KT M04/M09 A3042 RMK A01 T10381094  RH  065%=      5-min Rain = 0
KSVS 111755Z 36024G32KT M04/M10 A3043 RMK A01 T10391095  RH  065%=      5-min Rain = 0
KSVS 111800Z 36022G28KT M04/M09 A3043 RMK A01 T10381093  RH  066%=      5-min Rain = 0
KSVS 111805Z 35026G36KT M04/M09 A3043 RMK A01 T10421093  RH  067%=      5-min Rain = 0
KSVS 111810Z 00025G32KT M04/M10 A3043 RMK A01 T10411095  RH  066%=      5-min Rain = 0
KSVS 111815Z 36027G34KT M04/M10 A3043 RMK A01 T10401099  RH  063%=      5-min Rain = 0
KSVS 111820Z 36027G34KT M04/M10 A3043 RMK A01 T10391102  RH  061%=      5-min Rain = 0
KSVS 111825Z 00023G31KT M04/M10 A3043 RMK A01 T10361102  RH  060%=      5-min Rain = 0
KSVS 111830Z 00024G32KT M04/M10 A3043 RMK A01 T10361104  RH  059%=      5-min Rain = 0
KSVS 111835Z 00024G31KT M03/M10 A3043 RMK A01 T10341103  RH  059%=      5-min Rain = 0
KSVS 111840Z 00024G32KT M04/M11 A3043 RMK A01 T10361105  RH  058%=      5-min Rain = 0
KSVS 111845Z 36023G31KT M04/M10 A3043 RMK A01 T10351104  RH  059%=      5-min Rain = 0
KSVS 111850Z 36022G27KT M04/M10 A3043 RMK A01 T10351100  RH  060%=      5-min Rain = 0
KSVS 111855Z 36025G34KT M04/M10 A3043 RMK A01 T10371102  RH  060%=      5-min Rain = 0
KSVS 111900Z 36025G31KT M04/M11 A3044 RMK A01 T10381105  RH  059%=      5-min Rain = 0
KSVS 111905Z 00023G30KT M04/M11 A3043 RMK A01 T10361106  RH  058%=      5-min Rain = 0
KSVS 111910Z 36021G31KT M03/M11 A3043 RMK A01 T10311105  RH  056%=      5-min Rain = 0
KSVS 111915Z 36025G34KT M03/M11 A3043 RMK A01 T10331107  RH  056%=      5-min Rain = 0
KSVS 111920Z 35024G32KT M03/M11 A3043 RMK A01 T10331107  RH  056%=      5-min Rain = 0
KSVS 111925Z 00022G32KT M03/M11 A3043 RMK A01 T10281105  RH  055%=      5-min Rain = 0
KSVS 111930Z 00024G34KT M03/M11 A3043 RMK A01 T10301108  RH  054%=      5-min Rain = 0
KSVS 111935Z 00024G30KT M03/M11 A3043 RMK A01 T10301108  RH  054%=      5-min Rain = 0
KSVS 111940Z 35023G31KT M03/M11 A3044 RMK A01 T10291108  RH  054%=      5-min Rain = 0
KSVS 111945Z 00023G29KT M03/M11 A3043 RMK A01 T10291109  RH  054%=      5-min Rain = 0
KSVS 111950Z 36026KT M03/M11 A3043 RMK A01 T10281110  RH  053%=      5-min Rain = 0
KSVS 111955Z 00021G29KT M03/M11 A3043 RMK A01 T10251108  RH  053%=      5-min Rain = 0
KSVS 112000Z 01022G28KT M02/M11 A3043 RMK A01 T10191105  RH  051%=      5-min Rain = 0
KSVS 112005Z 00027G36KT M02/M11 A3043 RMK A01 T10211110  RH  050%=      5-min Rain = 0
KSVS 112010Z 01027G34KT M02/M11 A3043 RMK A01 T10241112  RH  050%=      5-min Rain = 0
KSVS 112015Z 01026G34KT M02/M11 A3042 RMK A01 T10241112  RH  051%=      5-min Rain = 0
KSVS 112020Z 00022G33KT M02/M11 A3043 RMK A01 T10201109  RH  050%=      5-min Rain = 0
KSVS 112025Z 01022G31KT M02/M11 A3043 RMK A01 T10211111  RH  050%=      5-min Rain = 0
KSVS 112030Z 01023G30KT M02/M11 A3043 RMK A01 T10241113  RH  050%=      5-min Rain = 0
KSVS 112035Z 01022G30KT M02/M11 A3044 RMK A01 T10241112  RH  050%=      5-min Rain = 0
KSVS 112040Z 00022G29KT M02/M11 A3044 RMK A01 T10231112  RH  050%=      5-min Rain = 0
KSVS 112045Z 00021G30KT M02/M11 A3044 RMK A01 T10231113  RH  050%=      5-min Rain = 0
KSVS 112050Z 36020G27KT M02/M11 A3044 RMK A01 T10231113  RH  050%=      5-min Rain = 0
KSVS 112055Z 00020G28KT M02/M11 A3045 RMK A01 T10191110  RH  050%=      5-min Rain = 0
KSVS 112100Z 36018G25KT M02/M11 A3045 RMK A01 T10171109  RH  049%=      5-min Rain = 0
KSVS 112105Z 00018G25KT M02/M11 A3045 RMK A01 T10161109  RH  049%=      5-min Rain = 0
KSVS 112110Z 00019G26KT M02/M11 A3045 RMK A01 T10151111  RH  048%=      5-min Rain = 0
KSVS 112115Z 01019G25KT M02/M11 A3045 RMK A01 T10161112  RH  048%=      5-min Rain = 0
KSVS 112120Z 01019G25KT M02/M11 A3044 RMK A01 T10161112  RH  048%=      5-min Rain = 0
KSVS 112125Z 01020G26KT M02/M11 A3044 RMK A01 T10151112  RH  047%=      5-min Rain = 0
KSVS 112130Z 01019G25KT M01/M11 A3044 RMK A01 T10131110  RH  047%=      5-min Rain = 0
KSVS 112135Z 01019G28KT M01/M11 A3044 RMK A01 T10111111  RH  046%=      5-min Rain = 0
KSVS 112140Z 02022G30KT M01/M11 A3045 RMK A01 T10081112  RH  045%=      5-min Rain = 0
KSVS 112145Z 02020G27KT M01/M11 A3045 RMK A01 T10121114  RH  046%=      5-min Rain = 0
KSVS 112150Z 01023G30KT M01/M11 A3046 RMK A01 T10121113  RH  046%=      5-min Rain = 0
KSVS 112155Z 01021G27KT M01/M11 A3046 RMK A01 T10121113  RH  046%=      5-min Rain = 0
KSVS 112200Z 02021G28KT M01/M11 A3046 RMK A01 T10091114  RH  045%=      5-min Rain = 0
KSVS 112205Z 01018G25KT M01/M11 A3045 RMK A01 T10051110  RH  044%=      5-min Rain = 0
KSVS 112210Z 01020G27KT M01/M11 A3046 RMK A01 T10091113  RH  045%=      5-min Rain = 0
KSVS 112215Z 02019G26KT M01/M11 A3046 RMK A01 T10101112  RH  045%=      5-min Rain = 0
KSVS 112220Z 01020G25KT M01/M11 A3046 RMK A01 T10111112  RH  046%=      5-min Rain = 0
KSVS 112225Z 01019G26KT M01/M11 A3046 RMK A01 T10121111  RH  047%=      5-min Rain = 0
KSVS 112230Z 01017G24KT M01/M11 A3046 RMK A01 T10111110  RH  047%=      5-min Rain = 0
KSVS 112235Z 01019G26KT M01/M11 A3047 RMK A01 T10111111  RH  047%=      5-min Rain = 0
KSVS 112240Z 01019G26KT M01/M11 A3047 RMK A01 T10101111  RH  046%=      5-min Rain = 0
KSVS 112245Z 01019G25KT M01/M11 A3047 RMK A01 T10131113  RH  046%=      5-min Rain = 0
KSVS 112250Z 02016G21KT M01/M11 A3048 RMK A01 T10141112  RH  047%=      5-min Rain = 0
KSVS 112255Z 02017G22KT M02/M11 A3049 RMK A01 T10151113  RH  047%=      5-min Rain = 0
KSVS 112300Z 02016KT M02/M11 A3049 RMK A01 T10151113  RH  047%=      5-min Rain = 0
KSVS 112305Z 02016G23KT M02/M11 A3049 RMK A01 T10151113  RH  047%=      5-min Rain = 0
KSVS 112310Z 01015G20KT M02/M11 A3049 RMK A01 T10151111  RH  048%=      5-min Rain = 0
KSVS 112315Z 02016G22KT M02/M11 A3049 RMK A01 T10151111  RH  048%=      5-min Rain = 0
KSVS 112320Z 01017G23KT M02/M11 A305 RMK A01 T10171111  RH  048%=      5-min Rain = 0
KSVS 112325Z 01018KT M02/M11 A305 RMK A01 T10191111  RH  049%=      5-min Rain = 0
KSVS 112330Z 00015G22KT M02/M11 A3051 RMK A01 T10211114  RH  049%=      5-min Rain = 0
KSVS 112335Z 01016KT M02/M12 A3052 RMK A01 T10241117  RH  048%=      5-min Rain = 0
KSVS 112340Z 01014G20KT M03/M12 A3052 RMK A01 T10261118  RH  049%=      5-min Rain = 0
KSVS 112345Z 01016G21KT M03/M12 A3052 RMK A01 T10261120  RH  048%=      5-min Rain = 0
KSVS 112350Z 00014G21KT M03/M12 A3052 RMK A01 T10291121  RH  049%=      5-min Rain = 0
KSVS 112355Z 36016G23KT M03/M13 A3052 RMK A01 T10301125  RH  048%=      5-min Rain = 0
KSVS 120000Z 00017G23KT M03/M13 A3052 RMK A01 T10311126  RH  047%=      5-min Rain = 0
KSVS 120005Z 00015G21KT M03/M13 A3052 RMK A01 T10321127  RH  047%=      5-min Rain = 0
KSVS 120010Z 01014G19KT M03/M13 A3053 RMK A01 T10331127  RH  048%=      5-min Rain = 0
KSVS 120015Z 01014KT M03/M13 A3053 RMK A01 T10341127  RH  048%=      5-min Rain = 0
KSVS 120020Z 01013G18KT M04/M13 A3053 RMK A01 T10351128  RH  048%=      5-min Rain = 0
KSVS 120025Z 01014G19KT M04/M13 A3054 RMK A01 T10351128  RH  048%=      5-min Rain = 0
KSVS 120030Z 01012G17KT M04/M13 A3053 RMK A01 T10361128  RH  049%=      5-min Rain = 0
KSVS 120035Z 01013KT M04/M13 A3053 RMK A01 T10371128  RH  049%=      5-min Rain = 0
KSVS 120040Z 01013KT M04/M13 A3053 RMK A01 T10371127  RH  049%=      5-min Rain = 0
KSVS 120045Z 01012G17KT M04/M13 A3054 RMK A01 T10381127  RH  049%=      5-min Rain = 0
KSVS 120050Z 00015KT M04/M13 A3054 RMK A01 T10371129  RH  048%=      5-min Rain = 0
KSVS 120055Z 00014G20KT M04/M13 A3054 RMK A01 T10371130  RH  048%=      5-min Rain = 0
KSVS 120100Z 00013KT M04/M13 A3054 RMK A01 T10381131  RH  048%=      5-min Rain = 0
KSVS 120105Z 36013KT M04/M13 A3055 RMK A01 T10381133  RH  048%=      5-min Rain = 0
KSVS 120110Z 36013KT M04/M14 A3055 RMK A01 T10391135  RH  047%=      5-min Rain = 0
KSVS 120115Z 00013G19KT M04/M14 A3055 RMK A01 T10401135  RH  047%=      5-min Rain = 0
KSVS 120120Z 00014KT M04/M14 A3056 RMK A01 T10401136  RH  047%=      5-min Rain = 0
KSVS 120125Z 00014KT M04/M14 A3056 RMK A01 T10411138  RH  047%=      5-min Rain = 0
KSVS 120130Z 01013G19KT M04/M14 A3056 RMK A01 T10421140  RH  046%=      5-min Rain = 0
KSVS 120135Z 01013KT M04/M14 A3056 RMK A01 T10441140  RH  047%=      5-min Rain = 0
KSVS 120140Z 01012KT M04/M14 A3056 RMK A01 T10441140  RH  047%=      5-min Rain = 0
KSVS 120145Z 00013G18KT M05/M14 A3056 RMK A01 T10451140  RH  047%=      5-min Rain = 0
KSVS 120150Z 00013KT M05/M14 A3056 RMK A01 T10451141  RH  047%=      5-min Rain = 0
KSVS 120155Z 00013KT M05/M14 A3056 RMK A01 T10451141  RH  047%=      5-min Rain = 0
KSVS 120200Z 00012G17KT M05/M14 A3057 RMK A01 T10461141  RH  047%=      5-min Rain = 0
KSVS 120205Z 00014G19KT M05/M14 A3057 RMK A01 T10451142  RH  046%=      5-min Rain = 0
KSVS 120210Z 00012KT M05/M14 A3057 RMK A01 T10471142  RH  047%=      5-min Rain = 0
KSVS 120215Z 00011KT M05/M14 A3057 RMK A01 T10481141  RH  048%=      5-min Rain = 0
KSVS 120220Z 00012KT M05/M14 A3057 RMK A01 T10481141  RH  048%=      5-min Rain = 0
KSVS 120225Z 01011KT M05/M14 A3057 RMK A01 T10491141  RH  048%=      5-min Rain = 0
KSVS 120230Z 01012KT M05/M14 A3057 RMK A01 T10491141  RH  048%=      5-min Rain = 0
KSVS 120235Z 01011KT M05/M14 A3057 RMK A01 T10501141  RH  048%=      5-min Rain = 0
KSVS 120240Z 01010KT M05/M14 A3057 RMK A01 T10521140  RH  049%=      5-min Rain = 0
KSVS 120245Z 01010KT M05/M14 A3057 RMK A01 T10531140  RH  050%=      5-min Rain = 0
KSVS 120250Z 01009KT M05/M14 A3058 RMK A01 T10541139  RH  050%=      5-min Rain = 0
KSVS 120255Z 01010KT M05/M14 A3057 RMK A01 T10541139  RH  051%=      5-min Rain = 0
KSVS 120300Z 01012G17KT M05/M14 A3057 RMK A01 T10521141  RH  049%=      5-min Rain = 0
KSVS 120305Z 01016KT M05/M14 A3057 RMK A01 T10511144  RH  047%=      5-min Rain = 0
KSVS 120310Z 01016G21KT M05/M15 A3057 RMK A01 T10511147  RH  047%=      5-min Rain = 0
KSVS 120315Z 01016KT M05/M15 A3056 RMK A01 T10511147  RH  046%=      5-min Rain = 0
KSVS 120320Z 01014G21KT M05/M15 A3057 RMK A01 T10521147  RH  047%=      5-min Rain = 0
KSVS 120325Z 01015G21KT M05/M15 A3057 RMK A01 T10531147  RH  047%=      5-min Rain = 0
KSVS 120330Z 01014G21KT M05/M15 A3057 RMK A01 T10541147  RH  047%=      5-min Rain = 0
KSVS 120335Z 01013KT M05/M15 A3058 RMK A01 T10541148  RH  047%=      5-min Rain = 0
KSVS 120340Z 01012KT M06/M15 A3058 RMK A01 T10561147  RH  048%=      5-min Rain = 0
KSVS 120345Z 01012G17KT M06/M15 A3058 RMK A01 T10561147  RH  048%=      5-min Rain = 0
KSVS 120350Z 01012G17KT M06/M15 A3058 RMK A01 T10561147  RH  048%=      5-min Rain = 0
KSVS 120355Z 01012KT M06/M15 A3058 RMK A01 T10571146  RH  049%=      5-min Rain = 0
KSVS 120400Z 02012KT M06/M15 A3059 RMK A01 T10591146  RH  050%=      5-min Rain = 0
KSVS 120405Z 02011KT M06/M15 A3059 RMK A01 T10591147  RH  050%=      5-min Rain = 0
KSVS 120410Z 01013G18KT M06/M15 A3059 RMK A01 T10591148  RH  049%=      5-min Rain = 0
KSVS 120415Z 02013G18KT M06/M15 A3059 RMK A01 T10601149  RH  049%=      5-min Rain = 0
KSVS 120420Z 02013KT M06/M15 A3059 RMK A01 T10601150  RH  049%=      5-min Rain = 0
KSVS 120425Z 01013G18KT M06/M15 A3059 RMK A01 T10611149  RH  049%=      5-min Rain = 0
KSVS 120430Z 01013KT M06/M15 A3059 RMK A01 T10621149  RH  050%=      5-min Rain = 0
KSVS 120435Z 01013G18KT M06/M15 A3059 RMK A01 T10631148  RH  050%=      5-min Rain = 0
KSVS 120440Z 01013KT M06/M15 A3059 RMK A01 T10631148  RH  050%=      5-min Rain = 0
KSVS 120445Z 01013G18KT M06/M15 A3059 RMK A01 T10641148  RH  051%=      5-min Rain = 0
KSVS 120450Z 01012KT M07/M15 A3059 RMK A01 T10651148  RH  051%=      5-min Rain = 0
KSVS 120455Z 01013KT M07/M15 A3059 RMK A01 T10661148  RH  052%=      5-min Rain = 0
KSVS 120500Z 01012KT M07/M15 A3059 RMK A01 T10671148  RH  052%=      5-min Rain = 0
KSVS 120505Z 01012KT M07/M15 A3059 RMK A01 T10671148  RH  052%=      5-min Rain = 0
KSVS 120510Z 01011KT M07/M15 A3059 RMK A01 T10691148  RH  053%=      5-min Rain = 0
KSVS 120515Z 01011KT M07/M15 A306 RMK A01 T10701148  RH  053%=      5-min Rain = 0
KSVS 120520Z 01011KT M07/M15 A3059 RMK A01 T10711147  RH  054%=      5-min Rain = 0
KSVS 120525Z 01009KT M07/M15 A3059 RMK A01 T10721147  RH  055%=      5-min Rain = 0
KSVS 120530Z 01010KT M07/M15 A306 RMK A01 T10731147  RH  055%=      5-min Rain = 0
KSVS 120535Z 01012KT M07/M15 A306 RMK A01 T10731147  RH  055%=      5-min Rain = 0
KSVS 120540Z 00012KT M07/M15 A306 RMK A01 T10731149  RH  054%=      5-min Rain = 0
KSVS 120545Z 00011KT M07/M15 A306 RMK A01 T10731150  RH  054%=      5-min Rain = 0
KSVS 120550Z 01011KT M07/M15 A306 RMK A01 T10741150  RH  054%=      5-min Rain = 0
KSVS 120555Z 00011KT M08/M15 A306 RMK A01 T10751150  RH  055%=      5-min Rain = 0

Page generated in 0.0159 seconds.